Relevés horaires Beauvechain (Belgique)


Relevés horaires à Beauvechain - Vendredi 26 Avr. 2019
Heure UTC1 Température [°C] Vent [km/h] Hum. [%] Pres.4 [hPa] Visi. [Km] Nébu. [octa] Préc.5 [mm] Cond.
2m. Res. Ros. Dir.2 Vit. Moy. Raf.3
23:00 10.3 9.1 4.7 SO 9.3 -- 11.1 68 1014.7(-0.5/3h) 20 -- -- --
22:00 11.0 10.7 4.3 SSO 5.6 -- 9.3 63 1014.8(0.0/3h) 20 -- -- --
21:00 11.6 11.6 4.1 S 3.7 -- 16.7 60 1015.1(0.8/3h) 20 -- -- --
20:00 12.4 12.3 3.3 S 5.6 -- 9.3 54 1015.2(1.0/3h) 20 -- -- --
19:00 13.2 12.9 3.5 SO 7.4 -- 16.7 52 1014.8(0.9/3h) 20 -- -- --
18:00 14.8 14.2 3.7 OSO 11.1 -- 25.9 47 1014.1(0.2/3h) 20 -- -- --
17:00 15.4 15.2 2.4 SO 9.3 -- 14.8 41 1014(-0.2/3h) 20 -- -- --
16:00 16.8 16.6 2.7 SO 11.1 -- 14.8 39 1013.7(-0.2/3h) 20 3/8 -- --
15:00 16.8 16.8 5.6 OSO 7.4 -- 25.9 48 1013.7(0.0/3h) 20 5/8 -- --
14:00 15.1 14.8 5.1 SO 9.3 -- 25.9 51 1014.2(0.4/3h) 20 5/8 -- --
12:00 14.7 14.3 5.3 SO 9.3 -- 13.0 53 1013.9(0.1/3h) 20 3/8 -- --
11:00 13.6 13.3 5.8 SO 7.4 -- 13.0 59 1013.8(0.0/3h) 20 3/8 -- --
10:00 14.1 13.6 7.5 SO 9.3 -- 13.0 64 1013.8(1.1/3h) 20 3/8 -- --
09:00 12.6 12.6 6.9 SO 5.6 -- 11.1 68 1013.8(0.7/3h) 20 5/8 -- --
08:00 11.1 10.8 7.2 SSO 5.6 -- 11.1 77 1014(1.9/3h) 20 4/8 -- --
07:00 9.1 8.1 7.1 SO 7.4 -- 11.1 87 1013(1.8/3h) 15 6/8 -- --
06:00 8.3 7.6 6.3 SSO 5.6 -- 11.1 87 1013.2(1.9/3h) 15 7/8 -- --
05:00 7.5 6.7 5.8 SSO 5.6 -- 9.3 89 1012.2(1.3/3h) 20 -- -- --
04:00 7.8 7.1 5.9 SSO 5.6 -- 11.1 88 1011.2(0.5/3h) 20 -- -- --
03:00 8.1 6.9 6.0 SSO 7.4 -- 11.1 87 1011.2(0.8/3h) 20 -- -- --
02:00 8.5 7.9 6.4 SSO 5.6 -- 11.1 87 1010.7(0.7/3h) 20 -- -- --
01:00 8.7 7.6 6.7 SO 7.4 -- 11.1 87 1010.7(1.5/3h) 20 -- -- --
00:00 8.4 7.7 6.6 SSO 5.6 -- 11.1 88 1010.2(1.5/3h) 20 -- -- --

1 Coordinated Universal Time. Actuellement il est 16:00 locale et 15:00 UTC.

2 Le vent souffle depuis la direction indiquée vers la direction oposée.

3 Les rafales max. sont disponible 40 min après l'heure du relevé.

4 Pour les stations d'altitude (plus de 600m) le géopotentiel du niveau le plus proche de la pression obligatoire est indiqué.

5 Les stations disposant d'un diffuseur peuvent indiquer "trace". Cela signifie que des précipitations ont touchés le sol mais que la quantité est inférieure à 0.1 mm.

Récapitulatif de la journée
Température [°C] Vent [km/h] Ensoleillement4 [h] Precipitations totale5 [mm] Pression [Hpa]
Min1 Max.2 Moy.3 Max. Min Max.
7.3 17.3 0 25.9 0 h 0 min 0 1010.2 1015.2

1 Température minimale relevée entre 18:00 UTC la veille et 18:00 UTC le jour donné.

2 Température maximale relevée entre 06:00 UTC le jour donné et 06:00 UTC le lendemain.

3 Vent moyen de la journée basé sur les relevés horaires.

4 Ensoleillement en heures relevé entre 06:00 UTC la veille et 06:00 UTC le jour donné.

5 Précipitations totales tombées entre 06:00 UTC la jour donné et 06:00 UTC le lendemain.

Graphiques horaires